Time;durP1;ratioP1;P1;durP2;ratioP2;P2;SDS_P1;SDS_P2;PMS_P1;PMS_P2;Temp;Humidity;BMP_temperature;BMP_pressure;BME280_temperature;BME280_humidity;BME280_pressure;Samples;Min_cycle;Max_cycle;Signal;HPM_P1;HPM_P2
2023/09/10 00:02:22;;;;;;;31.20;27.30;;;;;;;15.53;83.49;99140.88;226123;1277;22917;-76
2023/09/10 00:07:24;;;;;;;29.80;26.50;;;;;;;15.51;83.94;99144.41;226121;1278;24241;-75
2023/09/10 00:12:26;;;;;;;30.90;27.70;;;;;;;15.54;84.36;99135.24;226076;1280;22551;-75
2023/09/10 00:17:28;;;;;;;29.80;26.60;;;;;;;15.54;84.12;99138.32;226063;1274;22558;-76
2023/09/10 00:22:31;;;;;;;33.20;29.80;;;;;;;15.48;83.98;99140.12;225994;1275;22545;-75
2023/09/10 00:27:33;;;;;;;31.90;28.60;;;;;;;15.42;84.19;99137.77;226074;1277;22566;-76
2023/09/10 00:32:35;;;;;;;35.30;31.60;;;;;;;15.38;84.53;99137.13;226052;1272;22651;-75
2023/09/10 00:37:38;;;;;;;34.90;31.20;;;;;;;15.31;84.40;99136.81;226128;1280;22536;-75
2023/09/10 00:42:40;;;;;;;36.10;32.20;;;;;;;15.23;84.64;99135.62;226107;1270;23490;-75
2023/09/10 00:47:46;;;;;;;34.30;30.60;;;;;;;15.15;84.89;99135.39;226123;1277;22581;-73
2023/09/10 00:52:52;;;;;;;34.50;30.80;;;;;;;15.08;84.78;99136.35;226017;1273;22551;-75
2023/09/10 00:57:55;;;;;;;34.50;31.00;;;;;;;15.02;85.01;99133.94;226024;1278;22554;-76
2023/09/10 01:02:58;;;;;;;32.60;29.20;;;;;;;14.96;85.29;99131.30;226078;1280;22575;-75
2023/09/10 01:08:03;;;;;;;32.20;28.90;;;;;;;14.94;85.55;99129.30;226132;1276;22539;-75
2023/09/10 01:13:09;;;;;;;32.70;29.30;;;;;;;14.93;85.79;99125.24;226074;1278;22546;-75
2023/09/10 01:18:26;;;;;;;33.60;30.30;;;;;;;14.90;85.85;99122.55;226030;1280;22545;-75
2023/09/10 01:23:47;;;;;;;33.70;30.10;;;;;;;14.84;85.58;99122.56;226135;1277;22559;-75
2023/09/10 01:28:49;;;;;;;34.00;30.70;;;;;;;14.77;86.02;99119.58;226076;1275;22555;-75
2023/09/10 01:33:56;;;;;;;33.90;30.30;;;;;;;14.72;86.22;99119.16;225934;1280;22535;-75
2023/09/10 01:39:23;;;;;;;35.90;31.90;;;;;;;14.67;86.11;99120.20;225955;1276;190265;-75
2023/09/10 01:44:26;;;;;;;35.80;32.00;;;;;;;14.61;86.06;99124.58;226127;1275;25278;-75
2023/09/10 01:49:28;;;;;;;35.90;32.20;;;;;;;14.56;86.21;99127.23;226053;1275;22636;-75
2023/09/10 01:54:30;;;;;;;35.60;31.80;;;;;;;14.49;86.49;99124.17;225850;1279;22546;-75
2023/09/10 01:59:32;;;;;;;36.90;33.00;;;;;;;14.43;86.41;99127.44;226050;1276;22637;-75
2023/09/10 02:04:34;;;;;;;34.90;31.20;;;;;;;14.38;86.44;99134.33;225898;1278;22564;-75
2023/09/10 02:09:36;;;;;;;37.00;31.80;;;;;;;14.34;86.52;99133.05;226179;1277;22612;-75
2023/09/10 02:14:38;;;;;;;37.20;33.20;;;;;;;14.30;86.62;99129.98;225692;1275;22544;-75
2023/09/10 02:19:40;;;;;;;37.70;33.60;;;;;;;14.25;86.69;99131.33;225746;1277;22534;-75
2023/09/10 02:24:43;;;;;;;35.70;32.00;;;;;;;14.19;86.74;99127.10;225906;1280;22673;-75
2023/09/10 02:29:45;;;;;;;39.10;34.50;;;;;;;14.16;86.74;99129.17;226125;1278;24233;-75
2023/09/10 02:34:46;;;;;;;36.90;32.90;;;;;;;14.12;86.75;99126.96;226100;1278;22540;-75
2023/09/10 02:39:48;;;;;;;37.40;33.20;;;;;;;14.09;87.05;99123.86;226131;1278;22584;-75
2023/09/10 02:44:50;;;;;;;36.40;32.60;;;;;;;14.07;87.02;99131.22;226202;1276;22544;-76
2023/09/10 02:49:54;;;;;;;36.70;32.80;;;;;;;14.04;87.07;99134.84;225910;1278;24913;-76
2023/09/10 02:54:57;;;;;;;35.10;31.50;;;;;;;14.01;87.16;99132.70;225955;1278;25557;-76
2023/09/10 02:59:59;;;;;;;35.70;31.90;;;;;;;13.98;87.32;99131.72;226174;1275;22543;-75
2023/09/10 03:05:01;;;;;;;36.10;31.00;;;;;;;13.95;87.38;99129.84;226159;1276;25218;-75
2023/09/10 03:10:04;;;;;;;33.00;29.60;;;;;;;13.91;87.29;99132.61;226139;1274;25460;-75
2023/09/10 03:15:06;;;;;;;33.50;30.10;;;;;;;13.89;87.39;99129.30;225830;1280;22548;-75
2023/09/10 03:20:09;;;;;;;34.40;31.00;;;;;;;13.86;87.42;99130.10;226077;1280;22630;-75
2023/09/10 03:25:12;;;;;;;37.00;33.10;;;;;;;13.83;87.46;99130.70;226207;1280;24186;-75
2023/09/10 03:30:16;;;;;;;36.50;32.20;;;;;;;13.80;87.51;99130.48;225998;1280;22681;-76
2023/09/10 03:35:18;;;;;;;35.50;31.70;;;;;;;13.78;87.64;99132.39;226206;1280;22532;-75
2023/09/10 03:40:20;;;;;;;36.20;32.40;;;;;;;13.75;87.88;99131.87;226030;1280;22559;-75
2023/09/10 03:45:22;;;;;;;36.60;32.60;;;;;;;13.71;87.71;99130.95;226195;1276;22568;-75
2023/09/10 03:50:24;;;;;;;35.20;31.40;;;;;;;13.69;87.99;99129.31;225999;1278;22561;-76
2023/09/10 03:55:27;;;;;;;36.20;32.20;;;;;;;13.66;88.03;99123.98;226225;1278;22536;-75
2023/09/10 04:00:29;;;;;;;34.20;30.70;;;;;;;13.64;87.98;99119.05;225964;1280;22565;-75
2023/09/10 04:05:31;;;;;;;33.40;30.00;;;;;;;13.62;88.41;99120.69;226190;1280;22522;-75
2023/09/10 04:10:33;;;;;;;35.10;31.50;;;;;;;13.62;88.36;99117.54;225993;1279;22543;-75
2023/09/10 04:15:35;;;;;;;35.80;32.20;;;;;;;13.63;88.44;99119.14;226254;1277;22543;-75
2023/09/10 04:20:37;;;;;;;35.40;31.70;;;;;;;13.64;88.68;99118.39;225968;1280;24209;-74
2023/09/10 04:25:39;;;;;;;38.10;34.10;;;;;;;13.65;88.43;99119.66;226183;1277;24216;-76
2023/09/10 04:30:41;;;;;;;34.60;31.00;;;;;;;13.67;88.67;99118.71;226128;1276;22555;-75
2023/09/10 04:35:53;;;;;;;37.20;33.40;;;;;;;13.69;88.72;99118.81;225938;1278;22544;-75
2023/09/10 04:40:56;;;;;;;41.40;37.10;;;;;;;13.73;88.88;99119.89;226135;1278;24146;-75
2023/09/10 04:45:59;;;;;;;41.20;36.70;;;;;;;13.78;89.16;99120.53;226190;1272;22614;-75
2023/09/10 04:51:02;;;;;;;36.80;33.00;;;;;;;13.83;89.07;99127.67;225977;1280;22540;-74
2023/09/10 04:56:04;;;;;;;37.30;33.40;;;;;;;13.89;89.23;99126.85;226094;1277;22551;-75
2023/09/10 05:01:06;;;;;;;37.30;33.30;;;;;;;13.97;89.18;99128.66;226181;1280;22542;-76
2023/09/10 05:06:09;;;;;;;36.30;32.60;;;;;;;14.01;89.05;99130.88;225950;1278;22560;-75
2023/09/10 05:11:14;;;;;;;36.10;32.40;;;;;;;14.03;88.97;99131.33;226186;1275;24226;-73
2023/09/10 05:16:17;;;;;;;37.50;33.70;;;;;;;14.09;89.21;99127.91;225968;1278;24235;-76
2023/09/10 05:21:20;;;;;;;36.80;33.00;;;;;;;14.22;89.37;99127.68;226176;1280;22547;-75
2023/09/10 05:26:22;;;;;;;37.20;33.20;;;;;;;14.33;89.38;99128.80;226013;1265;22558;-76
2023/09/10 05:31:25;;;;;;;37.00;33.30;;;;;;;14.46;89.63;99129.24;226244;1274;22540;-76
2023/09/10 05:36:27;;;;;;;37.80;34.00;;;;;;;14.62;89.85;99127.27;226167;1270;22575;-75
2023/09/10 05:41:30;;;;;;;37.50;33.60;;;;;;;14.81;89.93;99126.48;226189;1278;22530;-75
2023/09/10 05:46:33;;;;;;;37.00;33.00;;;;;;;15.01;90.33;99130.96;226180;1276;22568;-75
2023/09/10 05:51:35;;;;;;;36.80;33.00;;;;;;;15.24;90.28;99134.30;225979;1279;22551;-76
2023/09/10 05:56:37;;;;;;;35.90;32.10;;;;;;;15.46;90.39;99131.52;226215;1280;22536;-76
2023/09/10 06:01:39;;;;;;;37.80;33.00;;;;;;;15.71;90.35;99134.11;226167;1278;24355;-76
2023/09/10 06:06:41;;;;;;;36.60;32.50;;;;;;;16.00;90.43;99138.10;226189;1276;25343;-76
2023/09/10 06:11:43;;;;;;;33.30;29.70;;;;;;;16.28;90.69;99135.33;225913;1280;22568;-75
2023/09/10 06:16:46;;;;;;;29.40;25.90;;;;;;;16.56;90.44;99128.08;226153;1278;25965;-75
2023/09/10 06:21:48;;;;;;;27.70;24.00;;;;;;;16.82;90.40;99126.55;225939;1266;22553;-75
2023/09/10 06:26:50;;;;;;;26.10;23.20;;;;;;;17.09;89.97;99125.55;225878;1280;22537;-75
2023/09/10 06:31:52;;;;;;;24.50;22.00;;;;;;;17.34;89.87;99124.67;225882;1279;22563;-75
2023/09/10 06:36:55;;;;;;;24.50;21.90;;;;;;;17.59;89.60;99131.94;226151;1276;22541;-75
2023/09/10 06:41:57;;;;;;;21.60;19.30;;;;;;;17.83;89.37;99141.07;226140;1278;22586;-76
2023/09/10 06:47:00;;;;;;;19.50;17.50;;;;;;;18.06;88.96;99146.92;226177;1280;22567;-76
2023/09/10 06:52:04;;;;;;;17.50;15.70;;;;;;;18.28;88.41;99148.20;225920;1280;24383;-75
2023/09/10 06:57:06;;;;;;;18.80;16.90;;;;;;;18.47;87.63;99148.24;226157;1280;22596;-75
2023/09/10 07:02:08;;;;;;;17.00;15.20;;;;;;;18.65;87.48;99148.88;226158;1278;22643;-75
2023/09/10 07:07:10;;;;;;;17.10;15.40;;;;;;;18.86;87.17;99147.48;226156;1276;25223;-76
2023/09/10 07:12:12;;;;;;;18.60;16.00;;;;;;;19.04;86.80;99149.84;226115;1277;22891;-76
2023/09/10 07:17:15;;;;;;;17.10;15.40;;;;;;;19.24;86.57;99148.89;226162;1280;22582;-75
2023/09/10 07:22:17;;;;;;;21.00;15.20;;;;;;;19.44;86.14;99152.80;225911;1280;22548;-75
2023/09/10 07:27:19;;;;;;;17.50;15.00;;;;;;;19.65;85.90;99154.29;226176;1278;22569;-75
2023/09/10 07:32:21;;;;;;;16.60;14.70;;;;;;;19.89;85.82;99148.80;226011;1278;25444;-76
2023/09/10 07:37:23;;;;;;;15.80;14.10;;;;;;;20.12;85.44;99146.89;226124;1278;22543;-75
2023/09/10 07:42:25;;;;;;;16.90;14.10;;;;;;;20.35;84.82;99152.50;225961;1278;22582;-75
2023/09/10 07:47:27;;;;;;;15.40;13.60;;;;;;;20.58;84.61;99153.33;226132;1278;22529;-75
2023/09/10 07:52:29;;;;;;;13.90;12.50;;;;;;;20.80;84.18;99156.76;226130;1277;23299;-76
2023/09/10 07:57:31;;;;;;;14.50;12.40;;;;;;;21.04;84.00;99152.28;226148;1278;22552;-76
2023/09/10 08:02:34;;;;;;;12.10;10.90;;;;;;;21.30;83.55;99151.08;226162;1278;27169;-77
2023/09/10 08:07:37;;;;;;;12.50;10.90;;;;;;;21.57;82.98;99154.96;225873;1280;24250;-76
2023/09/10 08:12:39;;;;;;;14.00;11.60;;;;;;;21.81;82.40;99157.30;226175;1278;22543;-76
2023/09/10 08:17:41;;;;;;;12.80;11.50;;;;;;;22.06;82.05;99161.73;226176;1278;22533;-76
2023/09/10 08:22:43;;;;;;;11.40;10.20;;;;;;;22.31;81.24;99161.67;225978;1280;25376;-76
2023/09/10 08:27:45;;;;;;;12.00;10.90;;;;;;;22.52;80.10;99161.27;226172;1276;22604;-76
2023/09/10 08:32:49;;;;;;;12.50;11.20;;;;;;;22.75;79.65;99154.00;225915;1280;22660;-77
2023/09/10 08:37:51;;;;;;;10.60;9.60;;;;;;;22.99;79.42;99160.21;226161;1278;22557;-76
2023/09/10 08:43:11;;;;;;;11.70;10.60;;;;;;;23.20;78.66;99162.30;226209;1280;22707;-76
2023/09/10 08:48:14;;;;;;;11.40;10.40;;;;;;;23.42;78.07;99158.38;225999;1278;24698;-77
2023/09/10 08:53:17;;;;;;;11.00;9.90;;;;;;;23.65;77.48;99150.19;226118;1275;22567;-76
2023/09/10 08:58:22;;;;;;;11.90;10.70;;;;;;;23.83;76.61;99149.12;226176;1278;22587;-76
2023/09/10 09:03:25;;;;;;;10.90;9.80;;;;;;;24.05;76.29;99147.08;226142;1276;22619;-76
2023/09/10 09:08:33;;;;;;;10.00;9.00;;;;;;;24.26;75.70;99148.53;226168;1276;22605;-76
2023/09/10 09:13:38;;;;;;;9.80;8.90;;;;;;;24.44;73.97;99148.52;225938;1278;22672;-76
2023/09/10 09:18:40;;;;;;;9.20;8.30;;;;;;;24.61;73.22;99144.47;226127;1278;23941;-76
2023/09/10 09:23:46;;;;;;;8.70;7.90;;;;;;;24.80;72.33;99139.32;226127;1278;22590;-75
2023/09/10 09:28:49;;;;;;;8.90;8.00;;;;;;;24.97;71.16;99135.96;226217;1276;24364;-75
2023/09/10 09:33:52;;;;;;;9.30;8.40;;;;;;;25.06;68.87;99139.91;225882;1280;22544;-77
2023/09/10 09:38:54;;;;;;;9.40;8.60;;;;;;;25.20;68.96;99133.55;225788;1278;25479;-74
2023/09/10 09:43:57;;;;;;;9.80;8.80;;;;;;;25.36;68.23;99128.36;226527;1277;22554;-76
2023/09/10 09:48:59;;;;;;;9.70;8.90;;;;;;;25.53;68.14;99131.38;226188;1276;22549;-76
2023/09/10 09:54:01;;;;;;;10.50;8.10;;;;;;;25.68;67.39;99131.14;226209;1274;22546;-76
2023/09/10 09:59:04;;;;;;;7.90;7.00;;;;;;;25.82;66.08;99126.19;226183;1278;22564;-76
2023/09/10 10:04:08;;;;;;;8.30;7.50;;;;;;;25.94;65.35;99118.38;225966;1278;25252;-77
2023/09/10 10:09:18;;;;;;;11.70;8.10;;;;;;;26.07;64.38;99116.61;226178;1278;22544;-75
2023/09/10 10:14:26;;;;;;;7.70;7.00;;;;;;;26.21;63.89;99110.46;226129;1278;23449;-75
2023/09/10 10:19:45;;;;;;;8.60;7.80;;;;;;;26.31;62.75;99107.95;226122;1278;25469;-76
2023/09/10 10:25:05;;;;;;;7.80;7.00;;;;;;;26.46;62.78;99100.37;225982;1267;22546;-75
2023/09/10 10:30:09;;;;;;;8.30;7.20;;;;;;;26.55;60.92;99097.42;225956;1275;24236;-74
2023/09/10 10:35:12;;;;;;;8.60;7.20;;;;;;;26.60;60.16;99089.23;226192;1278;22548;-76
2023/09/10 10:40:24;;;;;;;7.00;6.30;;;;;;;26.71;59.62;99085.13;225884;1277;25232;-75
2023/09/10 10:45:29;;;;;;;8.50;7.00;;;;;;;26.84;59.55;99085.92;226119;1279;22539;-75
2023/09/10 10:50:35;;;;;;;7.40;6.70;;;;;;;26.97;58.23;99089.29;226161;1276;22560;-75
2023/09/10 10:55:41;;;;;;;7.00;6.40;;;;;;;27.01;57.32;99083.70;226159;1279;22584;-76
2023/09/10 11:00:57;;;;;;;7.70;6.80;;;;;;;26.99;56.66;99075.21;225981;1278;23312;-76
2023/09/10 11:06:07;;;;;;;7.30;6.60;;;;;;;27.08;57.08;99065.58;225945;1279;22902;-76
2023/09/10 11:11:30;;;;;;;7.00;6.40;;;;;;;27.18;56.63;99052.30;226241;1276;22572;-76
2023/09/10 11:16:42;;;;;;;7.10;6.50;;;;;;;27.35;57.00;99054.27;226165;1279;22567;-77
2023/09/10 11:21:54;;;;;;;7.10;6.10;;;;;;;27.48;56.55;99053.82;226155;1269;22549;-76
2023/09/10 11:27:20;;;;;;;7.30;6.40;;;;;;;27.55;55.51;99052.50;226173;1278;25279;-76
2023/09/10 11:32:23;;;;;;;8.50;6.90;;;;;;;27.56;54.89;99047.51;226157;1279;22623;-76
2023/09/10 11:37:25;;;;;;;7.40;6.60;;;;;;;27.61;55.09;99044.34;226235;1280;24209;-76
2023/09/10 11:42:27;;;;;;;6.80;6.20;;;;;;;27.69;54.53;99039.45;226128;1280;22548;-76
2023/09/10 11:47:30;;;;;;;6.70;6.10;;;;;;;27.79;53.89;99037.68;226155;1278;22562;-76
2023/09/10 11:52:33;;;;;;;7.10;6.50;;;;;;;27.91;54.25;99032.33;226180;1280;22674;-76
2023/09/10 11:57:36;;;;;;;6.80;6.20;;;;;;;27.89;52.85;99026.89;226205;1280;22547;-76
2023/09/10 12:02:38;;;;;;;7.00;6.20;;;;;;;27.90;53.01;99025.09;226157;1276;25432;-76
2023/09/10 12:07:44;;;;;;;6.60;6.00;;;;;;;27.97;53.32;99022.73;226172;1276;22499;-76
2023/09/10 12:12:48;;;;;;;6.50;6.00;;;;;;;28.04;53.08;99023.80;226222;1280;22552;-77
2023/09/10 12:17:50;;;;;;;7.10;6.50;;;;;;;28.12;53.60;99016.95;226168;1280;23051;-76
2023/09/10 12:22:53;;;;;;;8.80;6.70;;;;;;;28.23;53.96;99013.14;226160;1280;22562;-76
2023/09/10 12:27:56;;;;;;;6.70;6.10;;;;;;;28.36;53.97;99006.11;226131;1280;24667;-76
2023/09/10 12:32:59;;;;;;;6.70;5.60;;;;;;;28.44;53.10;99000.83;226229;1264;22617;-75
2023/09/10 12:38:01;;;;;;;7.20;6.20;;;;;;;28.48;52.22;99000.44;226209;1280;22555;-74
2023/09/10 12:43:03;;;;;;;7.20;6.30;;;;;;;28.52;52.03;98994.48;226147;1276;22600;-75
2023/09/10 12:48:06;;;;;;;7.20;6.50;;;;;;;28.59;52.19;98988.77;226129;1280;25972;-76
2023/09/10 12:53:08;;;;;;;7.60;6.40;;;;;;;28.64;51.94;98983.80;226100;1280;22549;-75
2023/09/10 12:58:12;;;;;;;6.80;6.20;;;;;;;28.64;51.13;98975.21;226148;1276;22578;-76
2023/09/10 13:03:14;;;;;;;6.40;5.80;;;;;;;28.68;51.24;98972.25;226095;1280;22555;-76
2023/09/10 13:08:16;;;;;;;6.30;5.80;;;;;;;28.71;50.89;98971.05;225989;1278;22535;-76
2023/09/10 13:13:18;;;;;;;7.10;6.40;;;;;;;28.68;51.20;98967.08;226115;1280;22558;-75
2023/09/10 13:18:20;;;;;;;7.20;6.60;;;;;;;28.72;51.59;98963.25;226013;1279;22550;-76
2023/09/10 13:23:22;;;;;;;7.10;5.90;;;;;;;28.76;51.58;98959.92;226167;1274;22561;-76
2023/09/10 13:28:24;;;;;;;6.80;6.20;;;;;;;28.81;51.97;98961.07;226155;1280;25289;-77
2023/09/10 13:33:26;;;;;;;5.90;5.40;;;;;;;28.85;51.60;98964.39;226175;1274;26022;-77
2023/09/10 13:38:28;;;;;;;6.70;5.80;;;;;;;28.91;51.13;98962.64;225995;1280;225133;-76
2023/09/10 13:43:30;;;;;;;6.90;6.10;;;;;;;28.86;50.53;98965.34;226121;1276;22560;-75
2023/09/10 13:48:32;;;;;;;6.30;5.70;;;;;;;28.79;50.14;98962.96;226170;1280;22567;-77
2023/09/10 13:53:38;;;;;;;6.00;5.50;;;;;;;28.76;49.53;98959.59;226232;1276;22557;-76
2023/09/10 13:58:41;;;;;;;6.10;5.50;;;;;;;28.66;49.21;98959.44;226116;1274;22560;-75
2023/09/10 14:03:44;;;;;;;5.80;5.30;;;;;;;28.63;49.36;98960.97;226124;1277;22554;-77
2023/09/10 14:08:46;;;;;;;5.30;4.90;;;;;;;28.62;49.02;98963.02;225936;1274;22587;-77
2023/09/10 14:13:48;;;;;;;7.20;5.70;;;;;;;28.64;49.10;98963.13;226186;1269;22540;-76
2023/09/10 14:18:50;;;;;;;5.90;5.40;;;;;;;28.65;48.96;98958.42;226109;1277;25244;-76
2023/09/10 14:23:52;;;;;;;5.70;5.30;;;;;;;28.64;48.86;98958.04;226025;1280;22718;-75
2023/09/10 14:28:54;;;;;;;5.60;5.10;;;;;;;28.64;48.62;98956.18;226150;1274;22610;-76
2023/09/10 14:33:56;;;;;;;6.60;5.10;;;;;;;28.63;48.45;98948.38;226003;1273;22566;-75
2023/09/10 14:38:58;;;;;;;5.70;5.30;;;;;;;28.61;48.80;98945.25;226076;1280;22573;-77
2023/09/10 14:44:00;;;;;;;6.20;5.60;;;;;;;28.57;48.12;98943.91;225975;1280;22693;-76
2023/09/10 14:49:01;;;;;;;5.60;5.10;;;;;;;28.50;48.35;98940.17;226099;1272;22562;-76
2023/09/10 14:54:03;;;;;;;5.90;5.40;;;;;;;28.48;48.61;98943.23;226108;1276;22563;-75
2023/09/10 14:59:05;;;;;;;6.40;5.30;;;;;;;28.46;48.30;98941.54;226034;1273;22658;-76
2023/09/10 15:04:08;;;;;;;6.50;5.70;;;;;;;28.42;48.76;98937.46;226046;1280;24721;-74
2023/09/10 15:09:10;;;;;;;6.80;5.80;;;;;;;28.37;48.88;98932.38;226073;1274;22583;-75
2023/09/10 15:14:12;;;;;;;6.50;5.70;;;;;;;28.28;48.90;98927.55;226101;1280;25300;-75
2023/09/10 15:19:14;;;;;;;6.70;6.10;;;;;;;28.17;49.25;98926.92;226056;1277;22540;-75
2023/09/10 15:24:15;;;;;;;6.70;6.10;;;;;;;28.07;49.46;98924.65;226049;1276;22541;-75
2023/09/10 15:29:17;;;;;;;26.80;23.90;;;;;;;27.97;49.55;98917.42;226035;1278;22560;-75
2023/09/10 15:34:20;;;;;;;9.60;8.70;;;;;;;27.91;49.99;98911.36;226023;1280;22547;-75
2023/09/10 15:39:23;;;;;;;7.50;6.90;;;;;;;27.82;50.53;98907.37;225953;1280;22674;-75
2023/09/10 15:44:25;;;;;;;6.50;6.00;;;;;;;27.71;50.65;98907.13;226043;1280;24209;-75
2023/09/10 15:49:27;;;;;;;7.10;6.00;;;;;;;27.60;51.28;98905.67;226116;1277;22540;-76
2023/09/10 15:54:29;;;;;;;6.80;6.30;;;;;;;27.49;51.76;98905.17;226095;1276;22828;-76
2023/09/10 15:59:33;;;;;;;7.50;6.50;;;;;;;27.34;52.29;98905.56;226078;1276;22562;-75
2023/09/10 16:04:35;;;;;;;7.20;6.60;;;;;;;27.19;52.35;98906.29;226060;1277;22551;-75
2023/09/10 16:09:37;;;;;;;7.60;6.90;;;;;;;26.98;52.55;98903.46;226013;1272;22553;-75
2023/09/10 16:14:39;;;;;;;8.00;7.20;;;;;;;26.78;53.22;98899.21;226042;1277;22541;-76
2023/09/10 16:19:41;;;;;;;7.90;7.20;;;;;;;26.58;53.58;98900.66;226015;1277;22566;-75
2023/09/10 16:24:43;;;;;;;7.60;7.00;;;;;;;26.39;54.13;98899.25;226015;1273;22563;-75
2023/09/10 16:29:44;;;;;;;7.60;6.90;;;;;;;26.19;54.97;98899.17;226017;1276;22555;-75
2023/09/10 16:34:46;;;;;;;8.60;7.50;;;;;;;25.99;55.33;98907.66;226039;1280;24208;-75
2023/09/10 16:39:48;;;;;;;8.90;7.50;;;;;;;25.78;55.70;98917.85;225798;1280;22558;-74
2023/09/10 16:44:50;;;;;;;8.50;7.40;;;;;;;25.56;56.10;98912.44;225734;1280;22545;-74
2023/09/10 16:49:52;;;;;;;12.00;7.40;;;;;;;25.34;56.81;98914.16;225731;1265;22615;-75
2023/09/10 16:54:54;;;;;;;8.20;7.40;;;;;;;25.10;57.41;98913.34;226051;1278;22610;-74
2023/09/10 16:59:56;;;;;;;8.70;7.80;;;;;;;24.85;57.90;98916.74;225971;1276;22527;-74
2023/09/10 17:04:58;;;;;;;8.30;7.50;;;;;;;24.59;58.41;98920.52;225975;1276;22599;-75
2023/09/10 17:10:00;;;;;;;7.90;7.20;;;;;;;24.33;58.96;98926.70;225974;1276;22615;-75
2023/09/10 17:15:02;;;;;;;8.50;7.60;;;;;;;24.06;59.51;98927.58;225987;1276;22572;-75
2023/09/10 17:20:05;;;;;;;8.90;8.00;;;;;;;23.78;60.11;98930.84;226019;1276;22564;-75
2023/09/10 17:25:08;;;;;;;8.90;8.10;;;;;;;23.52;60.75;98933.79;226028;1280;22550;-75
2023/09/10 17:30:10;;;;;;;10.50;9.40;;;;;;;23.26;61.27;98940.58;225918;1278;22536;-76
2023/09/10 17:35:12;;;;;;;10.60;8.80;;;;;;;23.01;61.76;98939.05;226088;1280;22539;-76
2023/09/10 17:40:14;;;;;;;10.70;9.60;;;;;;;22.76;62.49;98932.64;225996;1276;22549;-76
2023/09/10 17:45:16;;;;;;;12.60;10.10;;;;;;;22.53;63.03;98936.17;225940;1280;22594;-75
2023/09/10 17:50:18;;;;;;;10.60;9.60;;;;;;;22.30;63.64;98937.23;225949;1280;24258;-75
2023/09/10 17:55:20;;;;;;;15.30;10.40;;;;;;;22.09;64.07;98932.58;225954;1280;22530;-76
2023/09/10 18:00:22;;;;;;;20.90;14.00;;;;;;;21.89;64.70;98937.52;225953;1278;22596;-75
2023/09/10 18:05:24;;;;;;;11.10;9.60;;;;;;;21.70;65.13;98934.46;225958;1278;22553;-76
2023/09/10 18:10:26;;;;;;;11.20;8.90;;;;;;;21.53;65.75;98934.09;226000;1280;22539;-75
2023/09/10 18:15:28;;;;;;;10.70;9.10;;;;;;;21.36;65.88;98934.16;225971;1276;25332;-75
2023/09/10 18:20:30;;;;;;;11.30;9.20;;;;;;;21.22;66.32;98934.38;225855;1280;22648;-75
2023/09/10 18:25:32;;;;;;;10.50;9.40;;;;;;;21.08;66.71;98937.86;225982;1280;22625;-75
2023/09/10 18:30:34;;;;;;;12.00;10.60;;;;;;;20.97;67.17;98944.45;225881;1280;22548;-75
2023/09/10 18:35:36;;;;;;;11.30;10.10;;;;;;;20.85;67.45;98948.77;226030;1272;22566;-75
2023/09/10 18:40:43;;;;;;;11.20;10.00;;;;;;;20.72;67.93;98954.42;226041;1278;22540;-74
2023/09/10 18:45:45;;;;;;;12.80;10.70;;;;;;;20.59;68.28;98949.90;226029;1278;22571;-75
2023/09/10 18:50:47;;;;;;;11.60;10.10;;;;;;;20.47;68.58;98950.27;226012;1276;22558;-75
2023/09/10 18:55:50;;;;;;;14.60;12.10;;;;;;;20.35;69.02;98948.75;225993;1276;22554;-75
2023/09/10 19:00:56;;;;;;;11.80;10.60;;;;;;;20.25;69.50;98948.31;226003;1278;22551;-74
2023/09/10 19:06:00;;;;;;;13.90;11.30;;;;;;;20.15;70.02;98948.45;226070;1277;22612;-75
2023/09/10 19:11:02;;;;;;;12.70;10.40;;;;;;;20.05;70.52;98946.84;226011;1276;22553;-76
2023/09/10 19:16:04;;;;;;;18.10;12.90;;;;;;;19.94;70.90;98946.02;226029;1276;23817;-74
2023/09/10 19:21:06;;;;;;;13.70;12.10;;;;;;;19.85;71.32;98947.86;226002;1280;22564;-75
2023/09/10 19:26:08;;;;;;;15.60;13.00;;;;;;;19.74;71.73;98948.77;226027;1280;22536;-74
2023/09/10 19:31:11;;;;;;;17.30;15.50;;;;;;;19.65;72.24;98946.46;226003;1274;22570;-74
2023/09/10 19:36:15;;;;;;;22.10;16.80;;;;;;;19.58;72.70;98954.64;226025;1276;24239;-75
2023/09/10 19:41:17;;;;;;;20.10;16.80;;;;;;;19.50;73.29;98951.22;225970;1272;22590;-75
2023/09/10 19:46:19;;;;;;;23.60;18.90;;;;;;;19.43;73.85;98949.64;225998;1276;22550;-74
2023/09/10 19:51:21;;;;;;;20.40;18.20;;;;;;;19.36;74.32;98949.52;226042;1278;24208;-75
2023/09/10 19:56:23;;;;;;;23.20;18.50;;;;;;;19.29;74.70;98947.09;226039;1272;22539;-75
2023/09/10 20:01:29;;;;;;;65.20;55.20;;;;;;;19.21;75.10;98943.23;226013;1280;22541;-75
2023/09/10 20:06:34;;;;;;;19.60;17.50;;;;;;;19.12;75.31;98942.27;226023;1278;22528;-74
2023/09/10 20:11:37;;;;;;;21.00;16.70;;;;;;;19.04;75.36;98943.14;226063;1275;22566;-75
2023/09/10 20:16:39;;;;;;;18.40;16.60;;;;;;;18.97;75.58;98949.69;226017;1280;22528;-73
2023/09/10 20:21:41;;;;;;;16.30;14.60;;;;;;;18.90;75.65;98947.61;226083;1272;22539;-74
2023/09/10 20:26:44;;;;;;;19.00;15.80;;;;;;;18.81;75.80;98945.09;225892;1278;24205;-75
2023/09/10 20:31:47;;;;;;;21.80;17.10;;;;;;;18.69;75.98;98940.77;226021;1280;25345;-75
2023/09/10 20:36:49;;;;;;;20.00;17.50;;;;;;;18.58;76.17;98935.83;226066;1275;25303;-74
2023/09/10 20:41:55;;;;;;;18.90;16.90;;;;;;;18.48;76.50;98936.23;226039;1273;22543;-75
2023/09/10 20:46:57;;;;;;;19.50;16.90;;;;;;;18.38;76.71;98936.60;226105;1273;23637;-75
2023/09/10 20:51:59;;;;;;;18.00;16.10;;;;;;;18.31;77.01;98929.38;226077;1270;22577;-75
2023/09/10 20:57:02;;;;;;;19.60;16.00;;;;;;;18.23;77.21;98929.60;226074;1276;22563;-74
2023/09/10 21:02:05;;;;;;;17.10;15.00;;;;;;;18.16;77.34;98932.20;226023;1274;25391;-75
2023/09/10 21:07:07;;;;;;;17.70;15.80;;;;;;;18.09;77.58;98933.08;226082;1262;22540;-75
2023/09/10 21:12:15;;;;;;;17.10;15.30;;;;;;;18.02;77.78;98931.50;226039;1280;22547;-74
2023/09/10 21:17:17;;;;;;;17.00;15.20;;;;;;;17.95;78.01;98937.83;226087;1280;22602;-75
2023/09/10 21:22:19;;;;;;;16.60;15.00;;;;;;;17.89;78.25;98931.69;225904;1278;25440;-74
2023/09/10 21:27:21;;;;;;;18.50;16.50;;;;;;;17.82;78.13;98931.09;226091;1278;22651;-74
2023/09/10 21:32:23;;;;;;;18.30;16.50;;;;;;;17.76;78.45;98929.20;226157;1276;22543;-76
2023/09/10 21:37:25;;;;;;;18.80;16.50;;;;;;;17.70;78.73;98922.95;226123;1275;22545;-74
2023/09/10 21:42:27;;;;;;;18.80;16.60;;;;;;;17.65;78.97;98920.95;226082;1278;24258;-75
2023/09/10 21:47:29;;;;;;;17.30;15.50;;;;;;;17.60;79.15;98924.23;226123;1278;24247;-77
2023/09/10 21:52:31;;;;;;;16.20;14.50;;;;;;;17.55;79.25;98923.73;226095;1280;22552;-76
2023/09/10 21:57:33;;;;;;;18.10;16.30;;;;;;;17.50;79.43;98918.10;226038;1276;22539;-75
2023/09/10 22:02:35;;;;;;;17.20;15.50;;;;;;;17.46;79.58;98916.35;225929;1278;25391;-76
2023/09/10 22:07:37;;;;;;;17.40;15.00;;;;;;;17.43;79.66;98920.21;226151;1272;23069;-75
2023/09/10 22:12:39;;;;;;;16.50;14.80;;;;;;;17.38;79.80;98915.85;226063;1276;22562;-75
2023/09/10 22:17:41;;;;;;;17.00;15.30;;;;;;;17.33;79.72;98917.71;226069;1278;22539;-75
2023/09/10 22:22:43;;;;;;;16.50;14.90;;;;;;;17.28;79.77;98920.20;226090;1278;22542;-74
2023/09/10 22:27:45;;;;;;;15.90;14.20;;;;;;;17.23;80.05;98915.56;226114;1277;23226;-75
2023/09/10 22:32:47;;;;;;;16.30;14.60;;;;;;;17.18;80.35;98916.98;226120;1276;22578;-76
2023/09/10 22:37:49;;;;;;;16.90;15.10;;;;;;;17.13;80.38;98917.20;226104;1268;22554;-76
2023/09/10 22:42:51;;;;;;;18.60;15.30;;;;;;;17.08;80.48;98916.52;226164;1276;22554;-75
2023/09/10 22:47:53;;;;;;;18.00;16.20;;;;;;;17.04;80.45;98915.58;226154;1276;22566;-75
2023/09/10 22:52:56;;;;;;;18.90;17.00;;;;;;;17.00;80.79;98914.17;226174;1280;22539;-76
2023/09/10 22:57:57;;;;;;;18.60;16.60;;;;;;;17.00;80.89;98914.48;226119;1272;22583;-75
2023/09/10 23:02:59;;;;;;;17.90;16.10;;;;;;;16.99;81.23;98914.73;225952;1278;22545;-76
2023/09/10 23:08:02;;;;;;;18.40;16.60;;;;;;;16.99;81.63;98912.96;226136;1275;25330;-75